createdAt,value
2018-02-19T01:04:07.356Z,-0.28
2018-02-19T01:06:35.786Z,-0.34
2018-02-19T01:09:04.208Z,-0.29
2018-02-19T01:11:33.370Z,-0.25
2018-02-19T01:14:01.844Z,-0.34
2018-02-19T01:16:30.234Z,-0.37
2018-02-19T01:18:58.642Z,-0.36
2018-02-19T01:21:27.034Z,-0.31
2018-02-19T01:23:55.427Z,-0.25
2018-02-19T01:26:24.632Z,-0.29
2018-02-19T01:28:53.057Z,-0.18
2018-02-19T01:31:21.447Z,-0.29
2018-02-19T01:33:50.649Z,-0.22
2018-02-19T01:36:19.822Z,-0.16
2018-02-19T01:38:48.249Z,-0.32
2018-02-19T01:41:17.634Z,-0.24
2018-02-19T01:43:46.819Z,-0.21
2018-02-19T01:46:15.241Z,-0.28
2018-02-19T01:48:43.653Z,-0.21
2018-02-19T01:51:12.092Z,-0.10
2018-02-19T01:53:41.297Z,-0.10
2018-02-19T01:56:09.704Z,-0.14
2018-02-19T01:58:38.107Z,-0.07
2018-02-19T02:01:06.498Z,-0.17
2018-02-19T02:03:34.936Z,-0.12
2018-02-19T02:06:03.359Z,-0.20
2018-02-19T02:08:31.758Z,-0.22
2018-02-19T02:11:00.924Z,-0.15
2018-02-19T02:13:29.316Z,-0.22
2018-02-19T02:15:57.801Z,-0.10
2018-02-19T02:18:26.193Z,-0.13
2018-02-19T02:20:54.592Z,-0.18
2018-02-19T02:23:23.048Z,-0.13
2018-02-19T02:25:51.507Z,-0.07
2018-02-19T02:28:19.888Z,-0.10
2018-02-19T02:30:48.280Z,-0.13
2018-02-19T02:33:16.685Z,-0.10
2018-02-19T02:35:45.871Z,-0.23
2018-02-19T02:38:14.279Z,-0.17
2018-02-19T02:40:42.831Z,-0.13
2018-02-19T02:43:11.294Z,-0.11
2018-02-19T02:45:39.690Z,-0.19
2018-02-19T02:48:08.125Z,-0.17
2018-02-19T02:50:36.515Z,-0.16
2018-02-19T02:53:04.927Z,-0.21
2018-02-19T02:55:33.331Z,-0.22
2018-02-19T02:58:03.185Z,-0.16
2018-02-19T03:00:31.597Z,-0.28
2018-02-19T03:03:00.094Z,-0.19
2018-02-19T03:05:28.508Z,-0.23
2018-02-19T03:07:56.905Z,-0.20
2018-02-19T03:10:25.308Z,-0.15
2018-02-19T03:12:53.754Z,-0.21
2018-02-19T03:15:22.168Z,-0.20
2018-02-19T03:17:50.586Z,-0.11
2018-02-19T03:20:19.725Z,-0.14
2018-02-19T03:22:48.154Z,-0.17
2018-02-19T03:25:16.539Z,-0.07
2018-02-19T03:27:44.946Z,-0.03
2018-02-19T03:30:13.341Z,0.01
2018-02-19T03:32:41.723Z,0.02
2018-02-19T03:35:10.206Z,-0.05
2018-02-19T03:37:38.607Z,-0.05
2018-02-19T03:40:07.025Z,-0.04
2018-02-19T03:42:35.419Z,0.07
2018-02-19T03:45:04.581Z,0.08
2018-02-19T03:47:32.940Z,0.10
2018-02-19T03:50:01.354Z,-0.02
2018-02-19T03:52:30.502Z,-0.01
2018-02-19T03:54:58.905Z,0.02
2018-02-19T03:57:27.287Z,0.04
2018-02-19T03:59:55.724Z,0.04
2018-02-19T04:02:24.888Z,0.05
2018-02-19T04:04:53.371Z,0.07
2018-02-19T04:07:21.809Z,-0.01
2018-02-19T04:09:50.271Z,0.07
2018-02-19T04:12:18.660Z,-0.01
2018-02-19T04:14:47.040Z,-0.04
2018-02-19T04:17:15.565Z,-0.21
2018-02-19T04:19:43.945Z,-0.23
2018-02-19T04:22:12.402Z,-0.17
2018-02-19T04:24:40.892Z,-0.22
2018-02-19T04:27:09.375Z,-0.21
2018-02-19T04:29:37.805Z,-0.12
2018-02-19T04:32:06.986Z,-0.11
2018-02-19T04:34:35.399Z,-0.14
2018-02-19T04:37:03.895Z,-0.13
2018-02-19T04:39:32.415Z,-0.18
2018-02-19T04:42:00.853Z,-0.22
2018-02-19T04:44:35.363Z,-0.19
2018-02-19T04:47:05.271Z,-0.24
2018-02-19T04:49:33.647Z,-0.32
2018-02-19T04:52:02.063Z,-0.34
2018-02-19T04:54:31.271Z,-0.28
2018-02-19T04:56:59.791Z,-0.25
2018-02-19T04:59:28.184Z,-0.29
2018-02-19T05:01:56.583Z,-0.25
2018-02-19T05:04:24.988Z,-0.25
2018-02-19T05:06:53.440Z,-0.26
2018-02-19T05:09:21.840Z,-0.19
2018-02-19T05:11:50.301Z,-0.21
2018-02-19T05:14:18.700Z,-0.10
2018-02-19T05:16:47.072Z,-0.07
2018-02-19T05:19:15.457Z,-0.09
2018-02-19T05:21:43.851Z,-0.07
2018-02-19T05:24:12.241Z,-0.04
2018-02-19T05:26:40.615Z,-0.01
2018-02-19T05:29:09.020Z,0.05
2018-02-19T05:31:37.411Z,0.05
2018-02-19T05:34:05.972Z,0.12
2018-02-19T05:36:35.127Z,0.16
2018-02-19T05:39:03.599Z,0.06
2018-02-19T05:41:32.255Z,0.12
2018-02-19T05:44:01.472Z,0.06
2018-02-19T05:46:30.014Z,0.19
2018-02-19T05:48:58.429Z,0.29
2018-02-19T05:51:26.799Z,0.24
2018-02-19T05:53:55.198Z,0.18
2018-02-19T05:56:23.628Z,0.34
2018-02-19T05:58:52.014Z,0.24
2018-02-19T06:01:20.394Z,0.35
2018-02-19T06:03:48.791Z,0.31
2018-02-19T06:06:17.944Z,0.36
2018-02-19T06:08:46.338Z,0.28
2018-02-19T06:11:14.719Z,0.27
2018-02-19T06:13:43.201Z,0.26
2018-02-19T06:16:11.806Z,0.28
2018-02-19T06:18:40.988Z,0.35
2018-02-19T06:21:09.377Z,0.27
2018-02-19T06:23:37.786Z,0.26
2018-02-19T06:26:06.961Z,0.28
2018-02-19T06:28:35.384Z,0.31
2018-02-19T06:31:04.004Z,0.34
2018-02-19T06:33:32.383Z,0.35
2018-02-19T06:36:00.770Z,0.41
2018-02-19T06:38:29.208Z,0.41
2018-02-19T06:40:57.709Z,0.51
2018-02-19T06:43:26.174Z,0.52
2018-02-19T06:45:54.567Z,0.58
2018-02-19T06:48:22.962Z,0.58
2018-02-19T06:50:51.359Z,0.53
2018-02-19T06:53:19.797Z,0.51
2018-02-19T06:55:48.264Z,0.68
2018-02-19T06:58:16.653Z,0.68
2018-02-19T07:00:45.063Z,0.66
2018-02-19T07:03:13.441Z,0.77
2018-02-19T07:05:41.808Z,0.72
2018-02-19T07:08:10.262Z,0.78
2018-02-19T07:10:38.664Z,0.90
2018-02-19T07:13:07.076Z,0.90
2018-02-19T07:15:35.455Z,0.93
2018-02-19T07:18:03.857Z,0.99
2018-02-19T07:20:33.002Z,0.90
2018-02-19T07:23:01.391Z,0.92
2018-02-19T07:25:29.795Z,0.98
2018-02-19T07:27:58.209Z,1.00
2018-02-19T07:30:26.608Z,1.04
2018-02-19T07:32:55.005Z,0.98
2018-02-19T07:35:23.404Z,1.24
2018-02-19T07:37:51.809Z,1.35
2018-02-19T07:40:20.208Z,1.43
2018-02-19T07:45:46.607Z,1.55
2018-02-19T07:48:15.024Z,1.75
2018-02-19T07:50:43.415Z,1.52
2018-02-19T07:53:11.803Z,1.89
2018-02-19T07:55:40.173Z,2.06
2018-02-19T07:58:08.548Z,2.04
2018-02-19T08:00:36.962Z,2.03
2018-02-19T08:03:06.591Z,1.93
2018-02-19T08:05:34.980Z,2.23
2018-02-19T08:08:03.368Z,2.31
2018-02-19T08:10:31.794Z,2.18
2018-02-19T08:13:00.215Z,2.06
2018-02-19T08:15:28.607Z,2.13
2018-02-19T08:17:57.475Z,2.37
2018-02-19T08:20:25.850Z,2.35
2018-02-19T08:22:54.399Z,2.31
2018-02-19T08:25:22.926Z,2.31
2018-02-19T08:27:51.303Z,2.38
2018-02-19T08:30:20.110Z,2.13
2018-02-19T08:32:48.743Z,2.20
2018-02-19T08:35:17.883Z,2.36
2018-02-19T08:37:46.284Z,2.43
2018-02-19T08:40:14.665Z,2.36
2018-02-19T08:45:41.042Z,2.44
2018-02-19T08:48:09.459Z,2.63
2018-02-19T08:50:38.634Z,2.83
2018-02-19T08:53:07.015Z,2.90
2018-02-19T08:55:35.487Z,3.13
2018-02-19T08:58:03.888Z,3.19
2018-02-19T09:00:32.286Z,2.88
2018-02-19T09:03:01.766Z,3.19
2018-02-19T09:05:30.181Z,3.34
2018-02-19T09:07:59.402Z,2.99
2018-02-19T09:10:27.767Z,3.07
2018-02-19T09:12:56.261Z,3.32
2018-02-19T09:15:24.654Z,3.21
2018-02-19T09:17:53.065Z,3.49
2018-02-19T09:20:21.458Z,3.38
2018-02-19T09:22:49.870Z,3.60
2018-02-19T09:25:18.245Z,3.47
2018-02-19T09:27:46.660Z,3.74
2018-02-19T09:30:15.157Z,4.01
2018-02-19T09:32:43.567Z,3.90
2018-02-19T09:35:12.023Z,4.17
2018-02-19T09:37:40.416Z,4.04
2018-02-19T09:40:08.804Z,4.08
2018-02-19T09:42:37.995Z,4.29
2018-02-19T09:45:06.394Z,4.76
2018-02-19T09:47:35.613Z,5.25
2018-02-19T09:50:04.864Z,5.44
2018-02-19T09:52:33.244Z,5.86
2018-02-19T09:55:01.638Z,5.26
2018-02-19T09:57:30.059Z,5.26
2018-02-19T09:59:58.429Z,5.41
2018-02-19T10:02:27.799Z,5.59
2018-02-19T10:04:56.203Z,5.88
2018-02-19T10:07:25.344Z,6.04
2018-02-19T10:09:53.763Z,5.88
2018-02-19T10:12:22.309Z,6.02
2018-02-19T10:14:50.708Z,5.54
2018-02-19T10:17:19.089Z,5.70
2018-02-19T10:19:47.467Z,5.47
2018-02-19T10:22:16.053Z,5.86
2018-02-19T10:24:44.482Z,5.59
2018-02-19T10:27:13.288Z,5.66
2018-02-19T10:29:41.732Z,5.62
2018-02-19T10:32:10.107Z,5.67
2018-02-19T10:34:38.528Z,5.91
2018-02-19T10:37:06.922Z,5.85
2018-02-19T10:39:35.406Z,5.72
2018-02-19T10:42:03.798Z,5.76
2018-02-19T10:44:32.179Z,6.09
2018-02-19T10:47:00.706Z,6.11
2018-02-19T10:49:29.096Z,6.09
2018-02-19T10:51:59.319Z,5.91
2018-02-19T10:54:28.486Z,6.21
2018-02-19T10:56:56.883Z,6.36
2018-02-19T10:59:26.199Z,6.27
2018-02-19T11:01:55.387Z,6.44
2018-02-19T11:04:23.775Z,6.21
2018-02-19T11:06:52.206Z,6.27
2018-02-19T11:09:20.721Z,6.60
2018-02-19T11:11:49.149Z,6.29
2018-02-19T11:14:17.561Z,6.30
2018-02-19T11:16:46.009Z,6.31
2018-02-19T11:19:14.443Z,6.37
2018-02-19T11:21:43.790Z,6.30
2018-02-19T11:24:12.964Z,6.52
2018-02-19T11:26:41.410Z,6.31
2018-02-19T11:29:09.892Z,5.97
2018-02-19T11:31:38.339Z,6.28
2018-02-19T11:34:07.495Z,6.51
2018-02-19T11:36:35.954Z,6.34
2018-02-19T11:39:04.605Z,6.42
2018-02-19T11:41:33.805Z,6.49
2018-02-19T11:44:02.973Z,6.52
2018-02-19T11:46:31.386Z,6.56
2018-02-19T11:49:00.686Z,6.73
2018-02-19T11:51:29.887Z,7.34
2018-02-19T11:53:59.051Z,7.44
2018-02-19T11:56:27.454Z,7.46
2018-02-19T11:58:55.943Z,7.56
2018-02-19T12:01:25.105Z,7.98
2018-02-19T12:03:53.575Z,7.52
2018-02-19T12:06:21.961Z,7.79
2018-02-19T12:08:50.451Z,7.27
2018-02-19T12:11:18.864Z,7.54
2018-02-19T12:13:47.264Z,7.25
2018-02-19T12:16:16.675Z,7.13
2018-02-19T12:18:45.179Z,7.17
2018-02-19T12:21:13.641Z,7.29
2018-02-19T12:23:42.944Z,7.21
2018-02-19T12:26:12.148Z,6.98
2018-02-19T12:28:40.619Z,6.89
2018-02-19T12:31:08.998Z,6.79
2018-02-19T12:33:38.705Z,7.37
2018-02-19T12:36:07.918Z,6.96
2018-02-19T12:38:36.390Z,6.97
2018-02-19T12:41:05.656Z,6.77
2018-02-19T12:43:34.056Z,6.55
2018-02-19T12:46:02.584Z,7.11
2018-02-19T12:48:31.316Z,6.97
2018-02-19T12:51:00.011Z,6.70
2018-02-19T12:53:28.779Z,6.80
2018-02-19T12:55:57.675Z,6.75
2018-02-19T12:58:26.317Z,6.94
2018-02-19T13:00:55.161Z,6.64
2018-02-19T13:03:24.532Z,6.78
2018-02-19T13:05:52.921Z,6.98
2018-02-19T13:08:22.306Z,7.02
2018-02-19T13:10:50.928Z,7.06
2018-02-19T13:13:19.773Z,7.16
2018-02-19T13:15:48.621Z,7.02
2018-02-19T13:18:17.214Z,7.30
2018-02-19T13:20:46.903Z,7.52
2018-02-19T13:23:15.343Z,7.70
2018-02-19T13:25:44.783Z,7.73
2018-02-19T13:28:13.475Z,7.71
2018-02-19T13:30:42.240Z,7.57
2018-02-19T13:33:13.820Z,7.87
2018-02-19T13:35:42.271Z,8.08
2018-02-19T13:38:10.678Z,8.18
2018-02-19T13:40:40.172Z,8.42
2018-02-19T13:43:08.712Z,8.14
2018-02-19T13:45:37.185Z,8.38
2018-02-19T13:48:06.478Z,8.07
2018-02-19T13:50:35.050Z,8.07
2018-02-19T13:53:03.612Z,8.25
2018-02-19T13:55:32.009Z,8.19
2018-02-19T13:58:00.506Z,8.17
2018-02-19T14:00:28.907Z,8.26
2018-02-19T14:02:57.964Z,7.95
2018-02-19T14:05:26.442Z,8.07
2018-02-19T14:07:54.832Z,8.29
2018-02-19T14:10:24.344Z,7.92
2018-02-19T14:12:52.950Z,7.89
2018-02-19T14:15:21.711Z,7.62
2018-02-19T14:17:50.163Z,7.58
2018-02-19T14:20:18.764Z,7.04
2018-02-19T14:22:48.014Z,6.99
2018-02-19T14:25:16.636Z,7.31
2018-02-19T14:27:45.238Z,7.20
2018-02-19T14:30:13.965Z,7.47
2018-02-19T14:32:43.853Z,7.47
2018-02-19T14:35:12.292Z,7.36
2018-02-19T14:37:40.712Z,7.31
2018-02-19T14:40:09.469Z,7.16
2018-02-19T14:42:37.858Z,7.30
2018-02-19T14:45:07.016Z,6.82
2018-02-19T14:47:35.404Z,6.87
2018-02-19T14:50:04.088Z,6.54
2018-02-19T14:52:39.175Z,6.75
2018-02-19T14:55:07.819Z,6.75
2018-02-19T14:57:36.399Z,6.89
2018-02-19T15:00:04.848Z,7.04
2018-02-19T15:02:33.350Z,6.80
2018-02-19T15:05:01.753Z,6.60
2018-02-19T15:07:30.147Z,6.40
2018-02-19T15:09:58.583Z,6.54
2018-02-19T15:12:27.000Z,6.39
2018-02-19T15:14:55.530Z,6.22
2018-02-19T15:17:24.134Z,6.29
2018-02-19T15:19:52.548Z,6.44
2018-02-19T15:22:20.983Z,6.44
2018-02-19T15:24:49.516Z,6.22
2018-02-19T15:27:17.955Z,6.35
2018-02-19T15:29:46.364Z,6.26
2018-02-19T15:32:14.797Z,6.02
2018-02-19T15:34:44.059Z,6.05
2018-02-19T15:37:12.637Z,6.11
2018-02-19T15:39:41.203Z,6.07
2018-02-19T15:42:09.650Z,6.05
2018-02-19T15:44:38.819Z,5.88
2018-02-19T15:47:08.146Z,6.05
2018-02-19T15:49:36.958Z,5.93
2018-02-19T15:52:06.134Z,6.02
2018-02-19T15:54:34.956Z,5.98
2018-02-19T15:57:03.358Z,5.98
2018-02-19T15:59:31.812Z,5.92
2018-02-19T16:02:00.940Z,5.82
2018-02-19T16:04:29.418Z,5.87
2018-02-19T16:06:57.824Z,5.70
2018-02-19T16:09:26.237Z,5.83
2018-02-19T16:11:54.712Z,5.72
2018-02-19T16:14:23.883Z,5.56
2018-02-19T16:16:52.322Z,5.60
2018-02-19T16:19:21.510Z,5.58
2018-02-19T16:21:51.279Z,5.61
2018-02-19T16:24:19.822Z,5.39
2018-02-19T16:26:48.240Z,5.44
2018-02-19T16:29:16.821Z,5.42
2018-02-19T16:31:45.445Z,5.33
2018-02-19T16:34:14.944Z,5.23
2018-02-19T16:36:43.812Z,5.32
2018-02-19T16:39:13.165Z,5.10
2018-02-19T16:41:41.739Z,4.99
2018-02-19T16:44:10.394Z,4.95
2018-02-19T16:46:52.832Z,4.90
2018-02-19T16:49:21.316Z,4.76
2018-02-19T16:51:50.712Z,4.98
2018-02-19T16:54:19.382Z,4.81
2018-02-19T16:56:47.941Z,4.73
2018-02-19T16:59:16.851Z,4.66
2018-02-19T17:01:45.419Z,4.47
2018-02-19T17:04:14.070Z,4.41
2018-02-19T17:06:44.193Z,4.53
2018-02-19T17:09:12.725Z,4.55
2018-02-19T17:11:43.051Z,4.64
2018-02-19T17:14:12.864Z,4.47
2018-02-19T17:16:42.412Z,4.50
2018-02-19T17:19:10.917Z,4.71
2018-02-19T17:21:40.145Z,4.69
2018-02-19T17:24:08.922Z,4.70
2018-02-19T17:26:37.709Z,4.73
2018-02-19T17:29:06.791Z,4.65
2018-02-19T17:31:36.031Z,4.43
2018-02-19T17:34:04.473Z,4.49
2018-02-19T17:36:33.642Z,4.57
2018-02-19T17:39:02.052Z,4.51
2018-02-19T17:41:31.228Z,4.38
2018-02-19T17:44:01.224Z,4.29
2018-02-19T17:46:30.436Z,4.33
2018-02-19T17:48:58.847Z,4.30
2018-02-19T17:51:28.013Z,4.35
2018-02-19T17:53:56.445Z,4.30
2018-02-19T17:56:25.604Z,4.27
2018-02-19T17:58:54.055Z,4.11
2018-02-19T18:01:22.492Z,4.00
2018-02-19T18:03:51.699Z,3.94
2018-02-19T18:06:20.871Z,4.11
2018-02-19T18:08:49.317Z,4.09
2018-02-19T18:11:17.719Z,4.23
2018-02-19T18:13:46.258Z,4.13
2018-02-19T18:16:15.424Z,3.98
2018-02-19T18:18:43.902Z,4.03
2018-02-19T18:21:12.499Z,3.98
2018-02-19T18:23:41.137Z,3.83
2018-02-19T18:26:09.554Z,3.62
2018-02-19T18:28:38.087Z,3.48
2018-02-19T18:31:06.689Z,3.46
2018-02-19T18:33:35.086Z,3.32
2018-02-19T18:36:03.508Z,3.21
2018-02-19T18:38:32.718Z,3.16
2018-02-19T18:41:01.867Z,3.07
2018-02-19T18:43:31.097Z,2.99
2018-02-19T18:45:59.460Z,2.89
2018-02-19T18:48:27.880Z,2.84
2018-02-19T18:50:57.080Z,2.75
2018-02-19T18:53:27.195Z,2.69
2018-02-19T18:55:56.345Z,2.64
2018-02-19T18:58:24.819Z,2.63
2018-02-19T19:00:53.242Z,2.63
2018-02-19T19:03:21.630Z,2.61
2018-02-19T19:05:50.832Z,2.59
2018-02-19T19:08:37.174Z,2.59
2018-02-19T19:11:05.603Z,2.53
2018-02-19T19:13:33.998Z,2.52
2018-02-19T19:16:02.467Z,2.54
2018-02-19T19:18:32.059Z,2.50
2018-02-19T19:21:00.479Z,2.48
2018-02-19T19:23:29.695Z,2.43
2018-02-19T19:25:58.114Z,2.52
2018-02-19T19:28:37.652Z,2.64
2018-02-19T19:31:16.589Z,2.60
2018-02-19T19:33:45.255Z,2.52
2018-02-19T19:36:13.720Z,2.50
2018-02-19T19:38:42.166Z,2.59
2018-02-19T19:41:10.639Z,2.63
2018-02-19T19:43:39.078Z,2.80
2018-02-19T19:46:07.586Z,3.00
2018-02-19T19:48:36.008Z,3.21
2018-02-19T19:51:05.208Z,3.30
2018-02-19T19:53:34.500Z,3.29
2018-02-19T19:56:03.848Z,3.23
2018-02-19T19:58:32.250Z,3.26
2018-02-19T20:01:00.721Z,3.15
2018-02-19T20:03:29.414Z,3.12
2018-02-19T20:06:09.571Z,3.24
2018-02-19T20:08:38.423Z,3.23
2018-02-19T20:11:07.288Z,3.21
2018-02-19T20:13:37.822Z,3.18
2018-02-19T20:16:07.868Z,3.12
2018-02-19T20:18:37.238Z,3.15
2018-02-19T20:21:06.655Z,3.02
2018-02-19T20:23:38.783Z,3.12
2018-02-19T20:26:08.784Z,3.02
2018-02-19T20:28:38.732Z,2.99
2018-02-19T20:31:08.835Z,3.02
2018-02-19T20:33:37.332Z,2.95
2018-02-19T20:36:05.903Z,3.07
2018-02-19T20:38:34.749Z,3.04
2018-02-19T20:41:03.187Z,3.08
2018-02-19T20:43:31.667Z,3.00
2018-02-19T20:46:00.120Z,3.00
2018-02-19T20:48:28.859Z,2.96
2018-02-19T20:50:59.349Z,2.84
2018-02-19T20:53:27.868Z,2.78
2018-02-19T20:55:56.340Z,2.71
2018-02-19T20:58:25.103Z,2.61
2018-02-19T21:00:53.537Z,2.49
2018-02-19T21:03:31.877Z,2.36
2018-02-19T21:06:00.315Z,2.24
2018-02-19T21:08:39.387Z,2.13
2018-02-19T21:11:08.937Z,2.10
2018-02-19T21:16:30.144Z,2.28
2018-02-19T21:18:59.616Z,2.36
2018-02-19T21:21:28.863Z,2.09
2018-02-19T21:23:57.265Z,1.94
2018-02-19T21:26:25.676Z,2.01
2018-02-19T21:28:54.867Z,1.99
2018-02-19T21:31:23.256Z,1.88
2018-02-19T21:33:51.687Z,1.82
2018-02-19T21:36:20.112Z,1.78
2018-02-19T21:38:49.327Z,1.70
2018-02-19T21:41:18.530Z,1.55
2018-02-19T21:43:47.730Z,1.44
2018-02-19T21:46:17.052Z,1.41
2018-02-19T21:48:45.502Z,1.22
2018-02-19T21:51:14.071Z,1.20
2018-02-19T21:53:42.475Z,1.07
2018-02-19T21:56:11.667Z,0.98
2018-02-19T21:58:40.077Z,0.94
2018-02-19T22:01:09.446Z,0.94
2018-02-19T22:03:37.976Z,0.93
2018-02-19T22:06:06.380Z,0.93
2018-02-19T22:08:34.998Z,0.81
2018-02-19T22:11:03.408Z,0.79
2018-02-19T22:13:31.805Z,0.71
2018-02-19T22:16:00.346Z,0.65
2018-02-19T22:18:28.781Z,0.64
2018-02-19T22:20:57.216Z,0.71
2018-02-19T22:23:25.613Z,0.96
2018-02-19T22:25:54.064Z,1.14
2018-02-19T22:28:22.520Z,1.32
2018-02-19T22:30:50.899Z,1.39
2018-02-19T22:33:19.430Z,1.52
2018-02-19T22:35:48.607Z,1.57
2018-02-19T22:38:17.022Z,1.60
2018-02-19T22:40:46.206Z,1.47
2018-02-19T22:43:15.384Z,1.33
2018-02-19T22:45:43.838Z,1.33
2018-02-19T22:48:13.110Z,1.45
2018-02-19T22:50:41.487Z,1.70
2018-02-19T22:53:09.911Z,1.76
2018-02-19T22:55:38.323Z,1.61
2018-02-19T22:58:06.701Z,1.72
2018-02-19T23:00:35.173Z,1.80
2018-02-19T23:03:03.587Z,1.89
2018-02-19T23:05:32.967Z,1.82
2018-02-19T23:08:01.342Z,1.69
2018-02-19T23:10:29.751Z,1.71
2018-02-19T23:12:58.987Z,1.71
2018-02-19T23:15:27.386Z,1.61
2018-02-19T23:17:55.791Z,1.53
2018-02-19T23:20:24.217Z,1.61
2018-02-19T23:22:52.610Z,1.70
2018-02-19T23:25:21.014Z,1.70
2018-02-19T23:27:49.470Z,1.64
2018-02-19T23:30:17.863Z,1.65
2018-02-19T23:32:46.287Z,1.75
2018-02-19T23:35:15.485Z,1.80
2018-02-19T23:37:43.883Z,1.75
2018-02-19T23:40:12.335Z,1.62
2018-02-19T23:42:41.515Z,1.45
2018-02-19T23:45:10.486Z,1.38
2018-02-19T23:47:38.913Z,1.30
2018-02-19T23:50:08.125Z,1.26
2018-02-19T23:52:37.302Z,1.14
2018-02-19T23:55:05.687Z,1.08
2018-02-19T23:57:34.220Z,1.03
